createdAt,value
2022-11-13T00:09:17.404Z,8.78
2022-11-13T00:25:00.258Z,8.81
2022-11-13T00:40:42.969Z,8.85
2022-11-13T00:56:25.305Z,8.87
2022-11-13T01:12:08.173Z,8.91
2022-11-13T01:27:50.528Z,8.97
2022-11-13T01:43:33.046Z,9.04
2022-11-13T01:59:15.586Z,9.1
2022-11-13T02:14:58.242Z,9.18
2022-11-13T02:30:40.699Z,9.26
2022-11-13T02:46:23.013Z,9.32
2022-11-13T03:02:05.143Z,9.37
2022-11-13T03:17:47.943Z,9.41
2022-11-13T03:33:30.638Z,9.46
2022-11-13T03:49:13.679Z,9.43
2022-11-13T04:04:56.722Z,9.42
2022-11-13T04:20:39.783Z,9.42
2022-11-13T04:36:22.666Z,9.39
2022-11-13T04:52:05.637Z,9.35
2022-11-13T05:07:48.301Z,9.35
2022-11-13T05:23:31.188Z,9.34
2022-11-13T05:39:14.103Z,9.37
2022-11-13T05:54:56.571Z,9.33
2022-11-13T06:10:39.410Z,9.33
2022-11-13T06:26:21.480Z,9.35
2022-11-13T06:42:03.904Z,9.38
2022-11-13T06:57:46.128Z,9.47
2022-11-13T07:13:28.760Z,9.5
2022-11-13T07:29:10.947Z,9.51
2022-11-13T07:44:53.765Z,9.54
2022-11-13T08:00:36.611Z,9.58
2022-11-13T08:16:19.665Z,9.74
2022-11-13T08:32:02.204Z,9.89
2022-11-13T08:47:44.297Z,10.06
2022-11-13T09:03:27.171Z,10.18
2022-11-13T09:19:10.202Z,10.32
2022-11-13T09:34:53.042Z,10.31
2022-11-13T09:50:35.344Z,10.65
2022-11-13T10:06:17.620Z,11.08
2022-11-13T10:21:59.802Z,11.3
2022-11-13T10:37:42.048Z,11.59
2022-11-13T10:53:24.729Z,11.58
2022-11-13T11:09:06.690Z,12.25
2022-11-13T11:24:49.097Z,12.99
2022-11-13T11:40:31.778Z,13.46
2022-11-13T11:56:13.814Z,12.7
2022-11-13T12:11:56.743Z,12.36
2022-11-13T12:27:39.343Z,12.07
2022-11-13T12:43:21.944Z,13.49
2022-11-13T12:59:04.552Z,18.34
2022-11-13T13:14:46.775Z,21.34
2022-11-13T13:30:28.817Z,18.12
2022-11-13T13:46:11.154Z,17.95
2022-11-13T14:01:53.690Z,15.14
2022-11-13T14:17:36.264Z,13.16
2022-11-13T14:33:18.433Z,11.91
2022-11-13T14:49:01.337Z,11.03
2022-11-13T15:04:43.909Z,10.3
2022-11-13T15:20:26.424Z,9.64
2022-11-13T15:21:13.699Z,9.8
2022-11-13T15:36:55.975Z,9.02
2022-11-13T15:52:38.438Z,8.6
2022-11-13T16:08:20.720Z,8.3
2022-11-13T16:24:03.747Z,8.02
2022-11-13T16:39:46.045Z,7.75
2022-11-13T16:55:28.643Z,7.49
2022-11-13T17:11:11.057Z,7.22
2022-11-13T17:26:53.447Z,7
2022-11-13T17:42:36.207Z,6.88
2022-11-13T17:58:18.944Z,7.05
2022-11-13T18:14:01.159Z,7.1
2022-11-13T18:29:43.060Z,7.02
2022-11-13T18:45:26.217Z,6.96
2022-11-13T19:01:08.346Z,6.96
2022-11-13T19:16:51.240Z,6.92
2022-11-13T19:32:33.944Z,6.74
2022-11-13T19:48:16.937Z,6.59
2022-11-13T20:03:59.967Z,6.31
2022-11-13T20:19:42.953Z,6.09
2022-11-13T20:35:25.324Z,6.1
2022-11-13T20:51:07.568Z,6.05
2022-11-13T21:06:50.825Z,5.85
2022-11-13T21:22:33.798Z,5.68
2022-11-13T21:38:16.852Z,5.62
2022-11-13T21:53:59.912Z,5.57
2022-11-13T22:09:41.905Z,5.56
2022-11-13T22:25:24.652Z,5.71
2022-11-13T22:41:06.715Z,5.85
2022-11-13T22:56:49.835Z,5.98
2022-11-13T23:12:32.494Z,6.02
2022-11-13T23:28:15.533Z,6.03
2022-11-13T23:43:57.980Z,6
2022-11-13T23:59:40.449Z,5.91
